createdAt,value
2019-03-23T00:00:52.226Z,54.40
2019-03-23T00:03:18.635Z,59.30
2019-03-23T00:05:44.896Z,58.93
2019-03-23T00:08:11.055Z,54.87
2019-03-23T00:10:37.226Z,55.27
2019-03-23T00:13:03.454Z,56.00
2019-03-23T00:15:30.048Z,56.13
2019-03-23T00:17:56.392Z,55.23
2019-03-23T00:20:22.606Z,57.90
2019-03-23T00:22:48.842Z,60.70
2019-03-23T00:25:15.482Z,56.03
2019-03-23T00:27:42.025Z,56.87
2019-03-23T00:30:10.342Z,54.70
2019-03-23T00:32:36.617Z,62.07
2019-03-23T00:35:05.279Z,59.60
2019-03-23T00:37:31.442Z,57.50
2019-03-23T00:39:57.690Z,59.63
2019-03-23T00:42:23.854Z,58.30
2019-03-23T00:44:49.943Z,57.77
2019-03-23T00:47:15.974Z,59.60
2019-03-23T00:49:42.100Z,57.77
2019-03-23T00:52:08.247Z,60.57
2019-03-23T00:54:34.370Z,55.07
2019-03-23T00:57:00.597Z,55.20
2019-03-23T00:59:26.806Z,54.97
2019-03-23T01:01:56.926Z,57.13
2019-03-23T01:04:23.032Z,51.67
2019-03-23T01:06:52.351Z,57.13
2019-03-23T01:09:17.164Z,51.90
2019-03-23T01:11:43.351Z,56.60
2019-03-23T01:14:09.469Z,55.77
2019-03-23T01:16:35.681Z,54.37
2019-03-23T01:19:01.686Z,52.97
2019-03-23T01:21:27.780Z,54.47
2019-03-23T01:23:53.976Z,56.97
2019-03-23T01:26:20.210Z,53.50
2019-03-23T01:28:46.365Z,53.10
2019-03-23T01:31:12.557Z,54.30
2019-03-23T01:33:38.799Z,54.37
2019-03-23T01:36:05.198Z,55.30
2019-03-23T01:38:31.350Z,54.60
2019-03-23T01:40:57.516Z,57.10
2019-03-23T01:43:23.710Z,54.23
2019-03-23T01:45:49.921Z,55.93
2019-03-23T01:48:16.105Z,56.07
2019-03-23T01:50:42.412Z,57.90
2019-03-23T01:53:08.885Z,54.20
2019-03-23T01:55:35.076Z,57.27
2019-03-23T01:58:01.359Z,55.57
2019-03-23T02:00:27.583Z,57.50
2019-03-23T02:02:53.674Z,56.47
2019-03-23T02:05:19.970Z,57.60
2019-03-23T02:07:46.195Z,57.00
2019-03-23T02:10:12.635Z,56.90
2019-03-23T02:12:38.931Z,53.53
2019-03-23T02:15:06.967Z,56.10
2019-03-23T02:17:33.086Z,53.10
2019-03-23T02:19:59.571Z,55.00
2019-03-23T02:22:25.787Z,55.90
2019-03-23T02:24:51.855Z,54.37
2019-03-23T02:27:17.910Z,53.83
2019-03-23T02:29:43.996Z,54.77
2019-03-23T02:32:10.132Z,53.60
2019-03-23T02:34:36.183Z,56.70
2019-03-23T02:37:02.332Z,54.00
2019-03-23T02:39:28.471Z,53.83
2019-03-23T02:41:54.527Z,55.27
2019-03-23T02:44:20.657Z,53.07
2019-03-23T02:46:46.715Z,49.67
2019-03-23T02:49:12.843Z,49.63
2019-03-23T02:51:39.833Z,53.97
2019-03-23T02:54:06.203Z,54.63
2019-03-23T02:56:32.315Z,53.57
2019-03-23T02:58:58.431Z,52.40
2019-03-23T03:01:24.599Z,51.07
2019-03-23T03:03:50.615Z,55.53
2019-03-23T03:06:16.654Z,48.97
2019-03-23T03:08:42.672Z,52.90
2019-03-23T03:11:08.737Z,54.10
2019-03-23T03:13:34.790Z,53.10
2019-03-23T03:16:00.935Z,54.10
2019-03-23T03:18:27.036Z,54.17
2019-03-23T03:20:53.094Z,54.73
2019-03-23T03:23:19.225Z,56.07
2019-03-23T03:25:45.394Z,53.80
2019-03-23T03:28:11.478Z,53.70
2019-03-23T03:30:37.677Z,54.00
2019-03-23T03:33:03.907Z,57.20
2019-03-23T03:35:30.027Z,52.77
2019-03-23T03:37:57.343Z,57.20
2019-03-23T03:40:23.769Z,54.53
2019-03-23T03:42:49.935Z,54.87
2019-03-23T03:45:24.171Z,56.17
2019-03-23T03:47:50.223Z,52.60
2019-03-23T03:50:16.336Z,52.77
2019-03-23T03:52:42.371Z,55.27
2019-03-23T03:55:08.493Z,55.80
2019-03-23T03:57:34.599Z,57.63
2019-03-23T04:00:00.629Z,57.63
2019-03-23T04:02:27.069Z,52.07
2019-03-23T04:04:53.237Z,52.33
2019-03-23T04:07:19.280Z,53.87
2019-03-23T04:09:45.538Z,53.20
2019-03-23T04:12:11.589Z,54.10
2019-03-23T04:14:37.645Z,50.03
2019-03-23T04:17:03.664Z,55.83
2019-03-23T04:19:29.912Z,53.80
2019-03-23T04:21:55.963Z,56.97
2019-03-23T04:24:22.117Z,55.53
2019-03-23T04:26:48.200Z,50.00
2019-03-23T04:29:14.336Z,54.73
2019-03-23T04:31:40.467Z,56.77
2019-03-23T04:34:06.493Z,54.90
2019-03-23T04:36:32.550Z,54.13
2019-03-23T04:38:58.717Z,52.70
2019-03-23T04:41:24.756Z,55.70
2019-03-23T04:43:50.823Z,52.83
2019-03-23T04:46:16.862Z,55.50
2019-03-23T04:48:42.999Z,51.30
2019-03-23T04:51:09.063Z,54.70
2019-03-23T04:53:37.888Z,59.90
2019-03-23T04:56:03.986Z,52.90
2019-03-23T04:58:30.323Z,51.97
2019-03-23T05:00:56.555Z,53.47
2019-03-23T05:03:24.893Z,52.53
2019-03-23T05:05:50.943Z,52.67
2019-03-23T05:08:17.103Z,52.97
2019-03-23T05:10:43.168Z,54.00
2019-03-23T05:13:09.319Z,53.83
2019-03-23T05:15:35.351Z,54.30
2019-03-23T05:18:01.394Z,53.47
2019-03-23T05:20:30.980Z,53.17
2019-03-23T05:23:04.675Z,51.83
2019-03-23T05:25:30.809Z,56.03
2019-03-23T05:27:56.929Z,56.40
2019-03-23T05:30:22.976Z,55.90
2019-03-23T05:32:49.086Z,56.07
2019-03-23T05:35:15.131Z,53.60
2019-03-23T05:37:41.863Z,54.93
2019-03-23T05:40:08.714Z,56.80
2019-03-23T05:42:34.739Z,57.93
2019-03-23T05:45:00.759Z,57.43
2019-03-23T05:47:26.818Z,55.63
2019-03-23T05:49:53.296Z,58.97
2019-03-23T05:52:19.439Z,56.00
2019-03-23T05:54:45.768Z,58.70
2019-03-23T05:57:12.025Z,65.70
2019-03-23T05:59:38.073Z,68.70
2019-03-23T06:02:04.139Z,69.27
2019-03-23T06:04:30.269Z,68.20
2019-03-23T06:06:56.518Z,66.33
2019-03-23T06:09:22.570Z,68.37
2019-03-23T06:11:48.579Z,75.80
2019-03-23T06:14:14.591Z,68.67
2019-03-23T06:16:40.596Z,68.67
2019-03-23T06:19:09.321Z,66.67
2019-03-23T06:21:35.650Z,69.23
2019-03-23T06:24:01.770Z,75.93
2019-03-23T06:26:27.770Z,70.23
2019-03-23T06:28:53.839Z,73.80
2019-03-23T06:31:20.053Z,68.57
2019-03-23T06:33:46.219Z,68.03
2019-03-23T06:36:12.420Z,68.00
2019-03-23T06:38:38.557Z,63.80
2019-03-23T06:41:04.726Z,61.83
2019-03-23T06:43:32.226Z,64.30
2019-03-23T06:45:58.395Z,59.17
2019-03-23T06:48:24.730Z,60.73
2019-03-23T06:50:50.751Z,60.07
2019-03-23T06:53:16.787Z,57.37
2019-03-23T06:55:43.136Z,59.47
2019-03-23T06:58:09.444Z,60.23
2019-03-23T07:00:35.615Z,64.20
2019-03-23T07:03:01.804Z,54.00
2019-03-23T07:05:29.322Z,56.50
2019-03-23T07:07:55.735Z,51.60
2019-03-23T07:10:29.512Z,52.30
2019-03-23T07:12:55.787Z,53.37
2019-03-23T07:15:21.926Z,50.50
2019-03-23T07:17:51.951Z,50.30
2019-03-23T07:20:18.000Z,51.00
2019-03-23T07:22:44.032Z,55.70
2019-03-23T07:25:10.814Z,49.43
2019-03-23T07:27:37.160Z,47.50
2019-03-23T07:30:14.663Z,50.87
2019-03-23T07:32:40.898Z,49.13
2019-03-23T07:35:07.433Z,47.80
2019-03-23T07:37:33.555Z,50.50
2019-03-23T07:40:02.678Z,50.00
2019-03-23T07:42:28.698Z,48.87
2019-03-23T07:44:54.723Z,48.23
2019-03-23T07:47:20.746Z,50.93
2019-03-23T07:49:46.744Z,51.23
2019-03-23T07:52:12.801Z,51.77
2019-03-23T07:54:38.922Z,46.17
2019-03-23T07:57:05.047Z,46.33
2019-03-23T07:59:31.336Z,50.13
2019-03-23T08:01:58.570Z,47.80
2019-03-23T08:04:24.642Z,48.97
2019-03-23T08:06:50.676Z,46.00
2019-03-23T08:09:20.595Z,50.53
2019-03-23T08:11:44.753Z,47.73
2019-03-23T08:14:10.794Z,48.63
2019-03-23T08:16:37.150Z,43.90
2019-03-23T08:19:03.367Z,51.10
2019-03-23T08:21:29.455Z,44.87
2019-03-23T08:23:55.492Z,44.07
2019-03-23T08:26:21.653Z,47.40
2019-03-23T08:28:47.734Z,49.00
2019-03-23T08:31:13.781Z,50.40
2019-03-23T08:33:39.923Z,49.67
2019-03-23T08:36:06.087Z,52.13
2019-03-23T08:38:32.378Z,51.83
2019-03-23T08:40:58.399Z,52.53
2019-03-23T08:43:24.827Z,54.80
2019-03-23T08:45:50.953Z,55.37
2019-03-23T08:48:17.077Z,50.80
2019-03-23T08:50:43.219Z,52.07
2019-03-23T08:53:09.258Z,52.30
2019-03-23T08:55:35.286Z,46.50
2019-03-23T08:58:01.354Z,50.17
2019-03-23T09:00:27.373Z,44.47
2019-03-23T09:02:53.499Z,47.20
2019-03-23T09:05:19.554Z,47.07
2019-03-23T09:07:45.682Z,46.00
2019-03-23T09:10:11.691Z,45.10
2019-03-23T09:12:37.714Z,42.67
2019-03-23T09:15:06.098Z,46.40
2019-03-23T09:17:32.141Z,44.03
2019-03-23T09:19:58.226Z,41.60
2019-03-23T09:22:24.250Z,43.00
2019-03-23T09:24:50.317Z,45.43
2019-03-23T09:27:16.462Z,44.23
2019-03-23T09:29:43.689Z,43.30
2019-03-23T09:32:09.778Z,43.60
2019-03-23T09:34:35.831Z,42.33
2019-03-23T09:37:01.886Z,44.63
2019-03-23T09:39:27.909Z,42.67
2019-03-23T09:41:54.130Z,42.37
2019-03-23T09:44:20.225Z,39.90
2019-03-23T09:46:46.261Z,41.17
2019-03-23T09:49:12.671Z,41.60
2019-03-23T09:51:39.703Z,40.37
2019-03-23T09:54:05.837Z,41.10
2019-03-23T09:56:31.925Z,38.33
2019-03-23T09:58:57.978Z,37.13
2019-03-23T10:01:24.453Z,39.20
2019-03-23T10:03:50.579Z,35.47
2019-03-23T10:06:16.603Z,35.47
2019-03-23T10:08:46.470Z,36.37
2019-03-23T10:11:11.738Z,35.97
2019-03-23T10:13:37.914Z,38.77
2019-03-23T10:16:03.913Z,36.97
2019-03-23T10:18:29.904Z,34.27
2019-03-23T10:20:55.986Z,38.47
2019-03-23T10:23:22.107Z,36.07
2019-03-23T10:25:48.145Z,35.57
2019-03-23T10:28:15.120Z,33.80
2019-03-23T10:30:41.243Z,35.80
2019-03-23T10:33:07.258Z,38.60
2019-03-23T10:35:33.591Z,36.10
2019-03-23T10:37:59.652Z,35.40
2019-03-23T10:40:32.353Z,35.33
2019-03-23T10:42:53.639Z,34.63
2019-03-23T10:45:19.751Z,33.23
2019-03-23T10:47:46.006Z,34.83
2019-03-23T10:50:12.305Z,37.13
2019-03-23T10:52:38.351Z,34.17
2019-03-23T10:55:05.234Z,32.83
2019-03-23T10:57:31.326Z,34.60
2019-03-23T10:59:57.357Z,34.57
2019-03-23T11:02:23.430Z,33.13
2019-03-23T11:04:49.463Z,35.83
2019-03-23T11:07:15.561Z,34.20
2019-03-23T11:09:41.688Z,33.77
2019-03-23T11:12:07.759Z,37.67
2019-03-23T11:14:33.978Z,35.60
2019-03-23T11:17:00.089Z,36.50
2019-03-23T11:19:26.275Z,37.43
2019-03-23T11:21:52.619Z,36.53
2019-03-23T11:24:18.772Z,36.80
2019-03-23T11:26:44.925Z,38.27
2019-03-23T11:29:11.279Z,36.60
2019-03-23T11:31:37.640Z,35.80
2019-03-23T11:34:04.001Z,41.40
2019-03-23T11:36:30.730Z,41.23
2019-03-23T11:38:58.333Z,42.57
2019-03-23T11:41:24.593Z,49.03
2019-03-23T11:43:50.967Z,49.40
2019-03-23T11:46:17.319Z,49.77
2019-03-23T11:48:43.598Z,48.57
2019-03-23T11:51:09.926Z,42.90
2019-03-23T11:53:36.773Z,47.90
2019-03-23T11:56:03.623Z,44.33
2019-03-23T11:58:29.822Z,47.53
2019-03-23T12:00:55.947Z,41.07
2019-03-23T12:03:22.669Z,44.77
2019-03-23T12:05:49.098Z,52.60
2019-03-23T12:08:18.017Z,46.80
2019-03-23T12:10:44.208Z,42.70
2019-03-23T12:13:10.414Z,44.73
2019-03-23T12:15:36.640Z,42.57
2019-03-23T12:18:03.135Z,42.47
2019-03-23T12:20:29.604Z,42.53
2019-03-23T12:22:55.864Z,41.73
2019-03-23T12:25:22.021Z,43.70
2019-03-23T12:27:48.250Z,44.53
2019-03-23T12:30:15.949Z,41.60
2019-03-23T12:32:42.219Z,39.80
2019-03-23T12:35:08.820Z,41.03
2019-03-23T12:37:35.158Z,42.13
2019-03-23T12:40:01.378Z,36.47
2019-03-23T12:42:27.526Z,39.17
2019-03-23T12:44:54.014Z,37.60
2019-03-23T12:47:20.187Z,38.40
2019-03-23T12:49:46.528Z,36.43
2019-03-23T12:52:12.695Z,35.73
2019-03-23T12:54:39.019Z,35.70
2019-03-23T12:57:05.380Z,36.60
2019-03-23T12:59:32.929Z,32.23
2019-03-23T13:01:59.280Z,31.43
2019-03-23T13:04:25.401Z,30.20
2019-03-23T13:06:51.668Z,34.57
2019-03-23T13:09:17.759Z,30.57
2019-03-23T13:11:43.884Z,31.20
2019-03-23T13:14:10.023Z,27.83
2019-03-23T13:16:36.186Z,27.20
2019-03-23T13:19:02.370Z,27.73
2019-03-23T13:21:28.498Z,28.63
2019-03-23T13:23:54.597Z,31.90
2019-03-23T13:26:20.714Z,25.97
2019-03-23T13:28:46.771Z,26.87
2019-03-23T13:31:12.861Z,25.67
2019-03-23T13:33:40.013Z,24.60
2019-03-23T13:36:06.115Z,24.60
2019-03-23T13:38:32.439Z,25.07
2019-03-23T13:40:58.907Z,25.73
2019-03-23T13:43:24.994Z,25.40
2019-03-23T13:45:51.089Z,24.20
2019-03-23T13:48:17.218Z,24.43
2019-03-23T13:50:43.350Z,22.70
2019-03-23T13:53:09.434Z,20.67
2019-03-23T13:55:35.629Z,22.30
2019-03-23T13:58:13.338Z,24.13
2019-03-23T14:00:40.032Z,23.47
2019-03-23T14:03:06.938Z,24.17
2019-03-23T14:05:33.078Z,25.13
2019-03-23T14:07:59.162Z,24.07
2019-03-23T14:10:25.749Z,24.10
2019-03-23T14:12:51.887Z,23.80
2019-03-23T14:15:17.886Z,26.53
2019-03-23T14:17:44.349Z,25.50
2019-03-23T14:20:11.905Z,24.87
2019-03-23T14:22:38.150Z,24.00
2019-03-23T14:25:05.530Z,23.83
2019-03-23T14:27:31.870Z,23.97
2019-03-23T14:29:58.214Z,23.50
2019-03-23T14:32:24.709Z,25.30
2019-03-23T14:34:50.791Z,24.93
2019-03-23T14:37:16.797Z,24.30
2019-03-23T14:39:42.884Z,24.30
2019-03-23T14:42:09.481Z,22.67
2019-03-23T14:44:39.608Z,24.90
2019-03-23T14:47:05.774Z,22.77
2019-03-23T14:49:31.949Z,22.73
2019-03-23T14:51:58.284Z,24.60
2019-03-23T14:54:24.554Z,22.57
2019-03-23T14:56:50.630Z,24.73
2019-03-23T14:59:16.766Z,21.83
2019-03-23T15:01:42.861Z,20.37
2019-03-23T15:04:08.923Z,23.70
2019-03-23T15:06:34.978Z,22.90
2019-03-23T15:09:01.164Z,22.70
2019-03-23T15:11:27.391Z,22.00
2019-03-23T15:13:53.674Z,21.87
2019-03-23T15:16:19.722Z,22.27
2019-03-23T15:18:45.895Z,21.57
2019-03-23T15:21:12.208Z,21.97
2019-03-23T15:23:38.696Z,22.10
2019-03-23T15:26:05.275Z,22.23
2019-03-23T15:28:32.774Z,23.37
2019-03-23T15:30:58.847Z,25.17
2019-03-23T15:33:25.000Z,24.17
2019-03-23T15:35:51.096Z,25.30
2019-03-23T15:38:17.211Z,24.73
2019-03-23T15:40:43.239Z,24.00
2019-03-23T15:43:09.272Z,19.27
2019-03-23T15:45:35.392Z,20.53
2019-03-23T15:48:01.546Z,17.73
2019-03-23T15:50:27.637Z,15.13
2019-03-23T15:52:53.810Z,12.70
2019-03-23T15:55:19.956Z,13.73
2019-03-23T15:57:46.086Z,12.50
2019-03-23T16:00:12.938Z,12.23
2019-03-23T16:02:39.463Z,13.40
2019-03-23T16:05:06.853Z,10.70
2019-03-23T16:07:32.974Z,11.90
2019-03-23T16:09:59.042Z,9.87
2019-03-23T16:12:34.238Z,10.60
2019-03-23T16:14:53.206Z,7.73
2019-03-23T16:17:19.532Z,9.60
2019-03-23T16:19:45.726Z,6.87
2019-03-23T16:22:11.891Z,7.07
2019-03-23T16:24:38.017Z,7.20
2019-03-23T16:27:04.306Z,7.53
2019-03-23T16:29:30.449Z,6.30
2019-03-23T16:31:56.526Z,7.03
2019-03-23T16:34:22.839Z,6.20
2019-03-23T16:36:49.027Z,5.37
2019-03-23T16:39:15.430Z,6.87
2019-03-23T16:41:41.514Z,5.87
2019-03-23T16:44:07.555Z,7.07
2019-03-23T16:46:33.740Z,8.07
2019-03-23T16:49:00.465Z,6.73
2019-03-23T16:51:26.580Z,6.97
2019-03-23T16:53:52.759Z,7.67
2019-03-23T16:56:18.986Z,8.67
2019-03-23T16:58:45.211Z,6.60
2019-03-23T17:01:11.723Z,6.93
2019-03-23T17:03:38.358Z,6.83
2019-03-23T17:06:04.604Z,7.10
2019-03-23T17:08:30.743Z,5.20
2019-03-23T17:10:57.304Z,6.43
2019-03-23T17:13:23.613Z,7.53
2019-03-23T17:15:49.837Z,5.90
2019-03-23T17:18:16.013Z,7.03
2019-03-23T17:20:42.825Z,5.97
2019-03-23T17:23:08.983Z,6.70
2019-03-23T17:25:35.181Z,6.10
2019-03-23T17:28:01.378Z,5.73
2019-03-23T17:30:27.559Z,6.40
2019-03-23T17:32:53.753Z,5.30
2019-03-23T17:35:19.955Z,6.33
2019-03-23T17:37:45.989Z,5.13
2019-03-23T17:40:12.419Z,5.40
2019-03-23T17:42:38.584Z,5.13
2019-03-23T17:45:05.818Z,5.90
2019-03-23T17:47:31.906Z,5.87
2019-03-23T17:49:58.275Z,5.47
2019-03-23T17:52:24.294Z,5.10
2019-03-23T17:54:50.404Z,4.57
2019-03-23T17:57:16.468Z,4.67
2019-03-23T17:59:42.560Z,4.17
2019-03-23T18:02:08.922Z,3.73
2019-03-23T18:04:35.032Z,4.80
2019-03-23T18:07:01.044Z,3.77
2019-03-23T18:09:27.182Z,4.10
2019-03-23T18:11:53.315Z,3.90
2019-03-23T18:14:20.492Z,3.30
2019-03-23T18:16:46.762Z,3.33
2019-03-23T18:19:13.192Z,3.63
2019-03-23T18:21:39.221Z,3.70
2019-03-23T18:24:05.261Z,3.70
2019-03-23T18:26:32.815Z,4.33
2019-03-23T18:28:58.842Z,4.03
2019-03-23T18:31:24.882Z,7.07
2019-03-23T18:33:51.082Z,4.00
2019-03-23T18:36:17.222Z,4.10
2019-03-23T18:38:43.462Z,4.10
2019-03-23T18:41:09.491Z,3.20
2019-03-23T18:43:35.664Z,2.67
2019-03-23T18:46:01.744Z,2.53
2019-03-23T18:48:27.893Z,3.70
2019-03-23T18:50:54.196Z,3.20
2019-03-23T18:53:20.299Z,2.30
2019-03-23T18:55:46.638Z,3.07
2019-03-23T18:58:12.685Z,3.27
2019-03-23T19:00:41.078Z,3.03
2019-03-23T19:03:07.479Z,3.57
2019-03-23T19:05:34.278Z,3.23
2019-03-23T19:08:00.461Z,4.47
2019-03-23T19:10:46.473Z,3.30
2019-03-23T19:13:12.868Z,3.20
2019-03-23T19:15:39.309Z,2.93
2019-03-23T19:18:06.228Z,3.30
2019-03-23T19:20:32.834Z,3.87
2019-03-23T19:22:59.007Z,3.03
2019-03-23T19:25:25.445Z,3.07
2019-03-23T19:27:51.593Z,3.33
2019-03-23T19:30:18.063Z,3.67
2019-03-23T19:32:44.251Z,3.17
2019-03-23T19:35:10.519Z,3.20
2019-03-23T19:37:38.769Z,3.60
2019-03-23T19:40:05.164Z,4.23
2019-03-23T19:42:31.510Z,3.63
2019-03-23T19:44:57.676Z,4.37
2019-03-23T19:47:23.828Z,4.10
2019-03-23T19:49:49.900Z,4.10
2019-03-23T19:52:16.173Z,3.70
2019-03-23T19:54:42.428Z,3.73
2019-03-23T19:57:08.658Z,5.00
2019-03-23T19:59:36.685Z,3.50
2019-03-23T20:02:02.828Z,3.67
2019-03-23T20:04:28.873Z,3.90
2019-03-23T20:06:55.098Z,3.93
2019-03-23T20:09:22.168Z,4.07
2019-03-23T20:11:48.296Z,4.73
2019-03-23T20:14:14.340Z,5.13
2019-03-23T20:16:40.706Z,4.53
2019-03-23T20:19:07.053Z,4.43
2019-03-23T20:21:38.407Z,4.23
2019-03-23T20:24:04.552Z,4.50
2019-03-23T20:26:30.597Z,4.40
2019-03-23T20:28:56.814Z,4.90
2019-03-23T20:31:22.928Z,3.93
2019-03-23T20:33:49.107Z,4.40
2019-03-23T20:36:15.202Z,6.37
2019-03-23T20:38:41.329Z,4.97
2019-03-23T20:41:07.384Z,5.30
2019-03-23T20:43:35.610Z,5.10
2019-03-23T20:46:01.668Z,4.90
2019-03-23T20:48:27.696Z,4.07
2019-03-23T20:50:53.758Z,4.40
2019-03-23T20:53:20.096Z,4.37
2019-03-23T20:55:46.247Z,4.00
2019-03-23T20:58:12.301Z,4.47
2019-03-23T21:00:38.396Z,3.70
2019-03-23T21:03:05.079Z,5.13
2019-03-23T21:05:34.038Z,4.57
2019-03-23T21:07:59.157Z,3.90
2019-03-23T21:10:25.472Z,4.00
2019-03-23T21:12:51.521Z,4.07
2019-03-23T21:15:17.645Z,4.67
2019-03-23T21:17:51.183Z,3.90
2019-03-23T21:20:11.606Z,5.53
2019-03-23T21:22:37.773Z,5.10
2019-03-23T21:25:05.459Z,4.43
2019-03-23T21:27:31.896Z,4.70
2019-03-23T21:29:57.939Z,4.43
2019-03-23T21:32:23.969Z,5.27
2019-03-23T21:34:50.200Z,4.90
2019-03-23T21:37:16.304Z,5.83
2019-03-23T21:39:42.511Z,4.50
2019-03-23T21:42:08.622Z,4.10
2019-03-23T21:44:34.765Z,3.73
2019-03-23T21:47:02.705Z,4.33
2019-03-23T21:49:28.937Z,3.87
2019-03-23T21:51:55.072Z,4.77
2019-03-23T21:54:21.090Z,3.23
2019-03-23T21:56:47.275Z,4.30
2019-03-23T21:59:13.416Z,3.80
2019-03-23T22:01:39.554Z,5.80
2019-03-23T22:04:05.710Z,5.03
2019-03-23T22:06:32.269Z,3.50
2019-03-23T22:08:58.878Z,4.07
2019-03-23T22:11:25.102Z,4.00
2019-03-23T22:13:51.274Z,4.67
2019-03-23T22:16:17.326Z,3.90
2019-03-23T22:18:43.486Z,4.03
2019-03-23T22:21:09.845Z,5.67
2019-03-23T22:23:37.330Z,4.60
2019-03-23T22:26:03.622Z,4.70
2019-03-23T22:28:29.771Z,4.83
2019-03-23T22:30:55.954Z,4.53
2019-03-23T22:33:22.188Z,4.47
2019-03-23T22:35:49.999Z,4.83
2019-03-23T22:38:16.323Z,4.13
2019-03-23T22:40:42.344Z,3.70
2019-03-23T22:43:08.766Z,4.57
2019-03-23T22:45:41.850Z,3.43
2019-03-23T22:48:10.191Z,2.60
2019-03-23T22:50:36.358Z,4.33
2019-03-23T22:53:02.507Z,2.80
2019-03-23T22:55:28.898Z,3.73
2019-03-23T22:57:55.025Z,3.93
2019-03-23T23:00:26.395Z,3.70
2019-03-23T23:02:52.655Z,5.20
2019-03-23T23:05:32.403Z,3.53
2019-03-23T23:07:56.555Z,4.43
2019-03-23T23:10:22.753Z,3.47
2019-03-23T23:12:50.988Z,3.00
2019-03-23T23:15:17.179Z,4.60
2019-03-23T23:17:44.020Z,3.73
2019-03-23T23:20:10.497Z,3.47
2019-03-23T23:22:39.663Z,3.90
2019-03-23T23:25:08.527Z,3.63
2019-03-23T23:27:36.595Z,3.83
2019-03-23T23:30:08.124Z,4.77
2019-03-23T23:32:35.011Z,5.20
2019-03-23T23:35:01.136Z,3.40
2019-03-23T23:37:27.172Z,4.13
2019-03-23T23:39:53.338Z,4.90
2019-03-23T23:42:19.762Z,3.70
2019-03-23T23:44:45.831Z,4.20
2019-03-23T23:47:11.958Z,4.47
2019-03-23T23:49:38.446Z,5.43
2019-03-23T23:52:04.619Z,5.33
2019-03-23T23:54:30.657Z,4.37
2019-03-23T23:56:56.770Z,4.03
2019-03-23T23:59:22.879Z,4.30
